Time;durP1;ratioP1;P1;durP2;ratioP2;P2;SDS_P1;SDS_P2;PMS_P1;PMS_P2;Temp;Humidity;BMP_temperature;BMP_pressure;BME280_temperature;BME280_humidity;BME280_pressure;Samples;Min_cycle;Max_cycle;Signal;HPM_P1;HPM_P2
2022/03/22 00:02:26;;;;;;;22.13;17.77;;;7.60;1.00;8.20;102067.00;;;;5046746;28;20484;-79
2022/03/22 00:04:54;;;;;;;23.80;18.37;;;7.60;1.00;8.20;102080.00;;;;5046016;28;20476;-79
2022/03/22 00:07:23;;;;;;;27.97;20.70;;;7.60;1.00;8.20;102091.00;;;;5047469;28;20464;-82
2022/03/22 00:09:51;;;;;;;22.00;18.17;;;7.50;1.00;8.20;102084.00;;;;5044369;28;20480;-78
2022/03/22 00:12:19;;;;;;;21.60;17.73;;;7.50;1.00;8.10;102069.00;;;;5043824;28;21008;-81
2022/03/22 00:14:48;;;;;;;20.63;17.97;;;7.50;1.00;8.00;102079.00;;;;5043678;28;21657;-78
2022/03/22 00:17:38;;;;;;;20.90;18.10;;;7.40;1.00;8.00;102074.00;;;;5059480;28;20539;-78
2022/03/22 00:20:10;;;;;;;25.40;18.37;;;7.40;1.00;7.70;102093.00;;;;5043867;28;20480;-83
2022/03/22 00:22:39;;;;;;;23.60;18.50;;;7.20;1.00;7.80;102079.00;;;;5045325;28;20531;-82
2022/03/22 00:25:09;;;;;;;19.93;16.73;;;7.20;1.00;7.70;102091.00;;;;5060900;28;20969;-80
2022/03/22 00:27:54;;;;;;;23.80;17.63;;;7.10;1.00;7.40;102075.00;;;;5044930;28;20542;-79
2022/03/22 00:30:26;;;;;;;22.07;17.07;;;7.00;1.00;7.60;102078.00;;;;5057623;28;20452;-79
2022/03/22 00:32:58;;;;;;;23.90;18.83;;;6.90;1.00;7.50;102078.00;;;;5041122;28;20456;-79
2022/03/22 00:35:29;;;;;;;19.60;16.83;;;6.80;1.00;7.40;102095.00;;;;5037811;28;20491;-82
2022/03/22 00:38:00;;;;;;;25.93;17.57;;;7.20;1.00;7.40;102060.00;;;;5053819;28;21127;-83
2022/03/22 00:40:29;;;;;;;19.83;17.20;;;6.90;1.00;7.40;102076.00;;;;5043860;28;20448;-79
2022/03/22 00:42:59;;;;;;;21.13;17.80;;;6.80;1.00;7.40;102075.00;;;;5042522;28;20491;-83
2022/03/22 00:45:32;;;;;;;24.20;18.40;;;6.90;1.00;7.30;102072.00;;;;5043342;28;20456;-84
2022/03/22 00:48:05;;;;;;;26.77;18.20;;;6.80;1.00;7.20;102098.00;;;;5044648;28;20523;-81
2022/03/22 00:50:37;;;;;;;28.30;18.90;;;6.70;1.00;7.10;102060.00;;;;5041388;28;20449;-79
2022/03/22 00:53:07;;;;;;;22.13;18.67;;;6.60;1.00;7.10;102095.00;;;;5046304;28;20506;-80
2022/03/22 00:55:36;;;;;;;21.80;18.07;;;6.60;1.00;7.10;102091.00;;;;5062618;28;20484;-84
2022/03/22 00:58:05;;;;;;;21.37;19.07;;;6.90;1.00;7.00;102081.00;;;;5066834;28;20483;-84
2022/03/22 01:00:34;;;;;;;22.00;18.40;;;6.70;1.00;7.10;102081.00;;;;5053089;28;20452;-80
2022/03/22 01:03:07;;;;;;;21.97;17.43;;;6.60;1.00;7.00;102074.00;;;;5066931;28;20539;-79
2022/03/22 01:05:37;;;;;;;19.87;16.53;;;6.50;1.00;7.10;102069.00;;;;5070483;28;20489;-84
2022/03/22 01:08:08;;;;;;;20.30;18.17;;;6.50;1.00;7.00;102091.00;;;;5049968;28;20448;-81
2022/03/22 01:10:40;;;;;;;19.57;17.40;;;6.80;1.00;6.90;102082.00;;;;5047051;28;20458;-80
2022/03/22 01:13:10;;;;;;;21.60;18.40;;;6.40;1.00;6.90;102064.00;;;;5046146;28;20462;-82
2022/03/22 01:15:42;;;;;;;27.30;18.67;;;6.40;1.00;7.00;102063.00;;;;5043080;28;20466;-84
2022/03/22 01:18:14;;;;;;;21.20;17.80;;;6.40;1.00;7.00;102084.00;;;;5046497;28;21624;-82
2022/03/22 01:20:46;;;;;;;23.43;18.23;;;6.40;1.00;7.00;102078.00;;;;5042603;28;20506;-82
2022/03/22 01:23:15;;;;;;;29.13;19.53;;;6.40;1.00;7.10;102070.00;;;;5045275;28;20488;-82
2022/03/22 01:25:45;;;;;;;22.23;18.37;;;6.40;1.00;7.00;102054.00;;;;5045273;28;20462;-79
2022/03/22 01:28:14;;;;;;;19.80;17.47;;;6.40;1.00;6.90;102077.00;;;;5045675;28;20529;-80
2022/03/22 01:30:44;;;;;;;32.53;19.83;;;6.30;1.00;6.90;102079.00;;;;5050165;28;20470;-80
2022/03/22 01:33:15;;;;;;;22.77;17.77;;;6.70;1.00;6.80;102065.00;;;;5047078;28;20495;-81
2022/03/22 01:35:44;;;;;;;22.57;19.00;;;6.30;1.00;6.80;102065.00;;;;5047115;28;20451;-81
2022/03/22 01:38:13;;;;;;;20.60;18.40;;;6.20;1.00;6.70;102069.00;;;;5065629;28;20530;-80
2022/03/22 01:40:42;;;;;;;20.33;16.83;;;6.20;1.00;6.60;102076.00;;;;5067360;28;20458;-83
2022/03/22 01:43:11;;;;;;;24.50;19.60;;;6.10;1.00;6.50;102073.00;;;;5067761;28;20463;-81
2022/03/22 01:45:40;;;;;;;23.13;18.60;;;6.00;1.00;6.50;102042.00;;;;5071925;28;20476;-80
2022/03/22 01:48:09;;;;;;;24.07;20.23;;;6.00;1.00;6.50;102057.00;;;;5070775;28;20451;-81
2022/03/22 01:50:39;;;;;;;24.80;18.47;;;6.00;1.00;6.40;102036.00;;;;5053650;28;20452;-81
2022/03/22 01:53:10;;;;;;;31.00;19.77;;;5.90;1.00;6.30;102052.00;;;;5059243;28;20673;-82
2022/03/22 01:55:40;;;;;;;25.23;21.27;;;5.90;1.00;6.30;102077.00;;;;5051672;28;20456;-83
2022/03/22 01:58:09;;;;;;;25.17;20.90;;;5.80;1.00;6.30;102045.00;;;;5058498;28;20460;-82
2022/03/22 02:00:37;;;;;;;23.63;19.20;;;5.80;1.00;6.10;102058.00;;;;5058747;28;21354;-83
2022/03/22 02:05:56;;;;;;;22.00;19.10;;;5.70;1.00;6.20;102052.00;;;;5066866;28;20459;-84
2022/03/22 02:08:29;;;;;;;22.90;19.43;;;5.80;1.00;6.20;102041.00;;;;5049664;28;20483;-82
2022/03/22 02:10:59;;;;;;;24.83;19.63;;;5.70;1.00;6.20;102042.00;;;;5053855;28;20957;-83
2022/03/22 02:13:29;;;;;;;24.60;20.27;;;5.70;1.00;6.10;102051.00;;;;5053053;28;20448;-83
2022/03/22 02:15:59;;;;;;;25.17;19.73;;;5.60;1.00;6.10;102022.00;;;;5054037;28;20457;-84
2022/03/22 02:18:28;;;;;;;26.83;20.00;;;5.90;1.00;6.10;102048.00;;;;5064650;28;20463;-82
2022/03/22 02:21:00;;;;;;;26.60;19.90;;;5.50;1.00;6.00;102044.00;;;;5068168;28;20444;-82
2022/03/22 02:23:51;;;;;;;25.37;20.47;;;5.50;1.00;5.80;102037.00;;;;5065065;28;20459;-82
2022/03/22 02:26:20;;;;;;;24.13;20.17;;;5.40;1.00;5.80;102025.00;;;;5047794;28;20451;-81
2022/03/22 02:28:53;;;;;;;26.73;20.47;;;5.30;1.00;5.70;102041.00;;;;5066550;28;20467;-82
2022/03/22 02:31:22;;;;;;;21.93;19.30;;;5.30;1.00;217.30;159169.00;;;;5053377;28;20448;-82
2022/03/22 02:33:52;;;;;;;21.70;18.97;;;5.30;1.00;5.90;102038.00;;;;5067222;28;20498;-82
2022/03/22 02:36:21;;;;;;;23.03;19.43;;;5.30;1.00;5.90;102053.00;;;;5051155;28;20456;-81
2022/03/22 02:38:52;;;;;;;25.60;20.53;;;5.30;1.00;5.70;102027.00;;;;5049799;28;20484;-83
2022/03/22 02:41:24;;;;;;;25.93;19.50;;;5.20;1.00;5.60;102036.00;;;;5026865;28;20532;-84
2022/03/22 02:43:53;;;;;;;22.10;19.57;;;5.20;1.00;5.60;102041.00;;;;5029416;28;20488;-84
2022/03/22 02:46:22;;;;;;;24.03;20.27;;;5.10;1.00;5.60;102047.00;;;;5045980;28;20479;-84
2022/03/22 02:48:51;;;;;;;27.50;20.10;;;5.50;1.00;5.50;102038.00;;;;5026638;28;20531;-85
2022/03/22 02:51:20;;;;;;;22.97;19.80;;;5.10;1.00;5.50;102032.00;;;;5042432;28;20580;-85
2022/03/22 02:53:51;;;;;;;27.80;20.87;;;5.10;1.00;5.50;102056.00;;;;5026072;28;20445;-85
2022/03/22 02:56:20;;;;;;;28.40;20.20;;;5.00;1.00;5.60;102039.00;;;;5032220;28;20468;-83
2022/03/22 02:58:49;;;;;;;27.97;21.00;;;5.00;1.00;5.50;101984.00;;;;5043950;28;20528;-82
2022/03/22 03:01:18;;;;;;;27.57;20.97;;;5.00;1.00;5.40;102020.00;;;;5045583;28;20458;-83
2022/03/22 03:03:47;;;;;;;30.47;22.17;;;5.00;1.00;5.30;102029.00;;;;5031871;28;20457;-84
2022/03/22 03:06:15;;;;;;;23.50;20.90;;;4.90;1.00;5.30;102057.00;;;;5026398;28;20453;-84
2022/03/22 03:08:43;;;;;;;27.43;20.90;;;4.80;1.00;5.20;102050.00;;;;5038031;28;20501;-84
2022/03/22 03:11:13;;;;;;;28.57;22.93;;;4.70;1.00;5.20;102032.00;;;;5040671;28;20468;-84
2022/03/22 03:16:28;;;;;;;25.60;19.93;;;4.60;1.00;5.10;102042.00;;;;5047508;28;20461;-84
2022/03/22 03:18:56;;;;;;;24.57;21.90;;;4.60;1.00;5.00;102049.00;;;;5045815;28;20487;-83
2022/03/22 03:21:25;;;;;;;23.57;20.77;;;4.50;1.00;5.00;102046.00;;;;5066938;28;20469;-83
2022/03/22 03:23:53;;;;;;;21.93;19.20;;;4.50;1.00;5.20;102062.00;;;;5068062;28;20453;-83
2022/03/22 03:26:23;;;;;;;22.70;19.40;;;4.90;1.00;5.30;102055.00;;;;5066880;28;20437;-85
2022/03/22 03:28:52;;;;;;;24.57;22.00;;;4.60;1.00;5.10;102044.00;;;;5063387;28;20481;-85
2022/03/22 03:31:20;;;;;;;25.00;20.33;;;4.60;1.00;5.00;102037.00;;;;5049789;28;20453;-85
2022/03/22 03:33:49;;;;;;;22.40;19.83;;;4.50;1.00;5.00;102051.00;;;;5046704;28;20483;-84
2022/03/22 03:36:17;;;;;;;23.07;19.80;;;4.50;1.00;4.90;102025.00;;;;5049750;28;20444;-86
2022/03/22 03:38:46;;;;;;;25.83;19.83;;;4.50;1.00;4.90;102042.00;;;;5055870;28;20495;-86
2022/03/22 03:47:03;;;;;;;22.83;19.43;;;4.40;1.00;4.80;102038.00;;;;5055300;28;20606;-83
2022/03/22 03:47:07;;;;;;;21.90;18.53;;;4.30;1.00;4.90;102048.00;;;;5039685;28;20476;-85
2022/03/22 03:49:53;;;;;;;24.10;20.97;;;4.30;1.00;4.80;102008.00;;;;5115432;27;20600;-85
2022/03/22 03:52:24;;;;;;;22.77;20.30;;;4.30;1.00;4.70;102057.00;;;;5096627;28;20446;-84
2022/03/22 03:54:53;;;;;;;22.77;20.37;;;4.30;1.00;4.90;102042.00;;;;5100718;28;20575;-84
2022/03/22 03:57:23;;;;;;;22.27;19.60;;;4.30;1.00;4.80;102076.00;;;;5093835;28;20520;-85
2022/03/22 03:59:52;;;;;;;22.97;20.30;;;4.60;1.00;4.70;102061.00;;;;5097855;28;20462;-85
2022/03/22 04:02:22;;;;;;;23.83;20.50;;;4.20;1.00;4.60;102056.00;;;;5108989;28;20482;-84
2022/03/22 04:04:53;;;;;;;24.80;20.80;;;4.20;1.00;4.60;102074.00;;;;5098976;28;20458;-84
2022/03/22 04:07:28;;;;;;;23.00;19.97;;;4.20;1.00;4.50;102035.00;;;;5107300;28;20457;-86
2022/03/22 04:09:58;;;;;;;26.60;21.80;;;4.10;1.00;4.60;102050.00;;;;5116558;28;20489;-86
2022/03/22 04:12:27;;;;;;;24.90;20.70;;;4.20;1.00;4.60;102035.00;;;;5091775;28;20458;-86
2022/03/22 04:14:55;;;;;;;24.37;20.57;;;4.10;1.00;4.50;102067.00;;;;5094876;28;20482;-85
2022/03/22 04:17:24;;;;;;;24.83;19.90;;;4.10;1.00;4.40;102066.00;;;;5107115;28;20439;-85
2022/03/22 04:19:54;;;;;;;23.53;20.43;;;4.00;1.00;4.40;102082.00;;;;5104867;28;20491;-84
2022/03/22 04:22:23;;;;;;;25.70;21.90;;;3.90;1.00;4.40;102038.00;;;;5106666;28;20469;-84
2022/03/22 04:25:10;;;;;;;25.33;21.20;;;3.90;1.00;4.30;102043.00;;;;5097701;28;20565;-87
2022/03/22 04:33:28;;;;;;;24.03;21.57;;;3.80;1.00;4.20;102039.00;;;;5085746;28;20451;-85
2022/03/22 04:35:58;;;;;;;23.50;20.57;;;3.70;1.00;4.20;102034.00;;;;5093390;28;20446;-85
2022/03/22 04:38:26;;;;;;;26.27;21.33;;;3.70;1.00;4.30;102041.00;;;;5073748;28;20485;-85
2022/03/22 04:40:54;;;;;;;24.97;20.97;;;3.80;1.00;4.20;102045.00;;;;5098211;28;20454;-85
2022/03/22 04:43:23;;;;;;;24.20;20.13;;;3.80;1.00;4.20;101987.00;;;;5077878;28;20457;-84
2022/03/22 04:45:52;;;;;;;24.30;21.00;;;4.00;1.00;4.10;102043.00;;;;5072074;28;20546;-85
2022/03/22 04:48:20;;;;;;;25.20;20.20;;;3.80;1.00;4.10;102039.00;;;;5072124;28;20539;-81
2022/03/22 04:56:43;;;;;;;31.00;21.07;;;3.60;1.00;3.90;102070.00;;;;5082639;28;21148;-81
2022/03/22 04:56:46;;;;;;;24.47;20.40;;;3.60;1.00;4.00;102093.00;;;;5081097;28;20553;-80
2022/03/22 04:59:19;;;;;;;32.50;23.77;;;3.60;1.00;4.00;102057.00;;;;5084637;28;20948;-80
2022/03/22 05:01:48;;;;;;;27.27;22.63;;;3.90;1.00;4.10;102048.00;;;;5073859;28;20455;-79
2022/03/22 05:04:16;;;;;;;25.23;21.57;;;3.60;1.00;4.10;102080.00;;;;5072777;28;20470;-81
2022/03/22 05:06:45;;;;;;;33.00;23.50;;;3.60;1.00;4.30;102074.00;;;;5079901;28;20447;-80
2022/03/22 05:09:15;;;;;;;30.53;24.00;;;3.60;1.00;4.30;102073.00;;;;5079446;28;21002;-81
2022/03/22 05:11:44;;;;;;;32.53;23.73;;;3.70;1.00;4.10;102076.00;;;;5086417;28;20455;-81
2022/03/22 05:14:13;;;;;;;26.93;22.80;;;3.60;1.00;3.90;102079.00;;;;5067363;28;20450;-81
2022/03/22 05:16:41;;;;;;;29.53;22.83;;;3.50;1.00;3.90;102081.00;;;;5067824;28;20455;-81
2022/03/22 05:19:09;;;;;;;23.00;19.73;;;3.60;1.00;3.90;102081.00;;;;5070461;28;20474;-81
2022/03/22 05:21:38;;;;;;;26.57;21.07;;;3.40;1.00;4.00;102074.00;;;;5070587;28;20458;-79
2022/03/22 05:24:07;;;;;;;24.83;20.30;;;3.40;1.00;3.90;102094.00;;;;5071126;28;20452;-80
2022/03/22 05:26:37;;;;;;;26.57;22.40;;;3.50;1.00;3.90;102092.00;;;;5071657;28;20469;-80
2022/03/22 05:29:05;;;;;;;24.40;21.20;;;3.40;1.00;3.80;102071.00;;;;5072815;28;20477;-80
2022/03/22 05:31:35;;;;;;;28.90;21.40;;;3.40;1.00;3.80;102085.00;;;;5073768;28;20455;-81
2022/03/22 05:34:04;;;;;;;26.20;19.43;;;3.40;1.00;3.90;102088.00;;;;5071890;28;20460;-80
2022/03/22 05:36:32;;;;;;;25.37;20.90;;;3.40;1.00;4.00;102092.00;;;;5063285;28;20459;-81
2022/03/22 05:39:01;;;;;;;24.83;19.63;;;3.50;1.00;4.00;102066.00;;;;5072602;28;20479;-81
2022/03/22 05:41:29;;;;;;;27.80;20.57;;;3.50;1.00;4.10;102089.00;;;;5071979;28;20584;-80
2022/03/22 05:43:59;;;;;;;25.17;20.73;;;3.60;1.00;4.20;102087.00;;;;5087850;28;20463;-81
2022/03/22 05:46:28;;;;;;;23.77;20.93;;;3.70;1.00;4.20;102093.00;;;;5068610;28;20839;-80
2022/03/22 05:49:00;;;;;;;28.60;21.90;;;3.70;1.00;4.30;102079.00;;;;5070132;28;20579;-80
2022/03/22 05:51:28;;;;;;;29.03;22.30;;;3.80;1.00;4.40;102072.00;;;;5076324;28;20822;-81
2022/03/22 05:53:56;;;;;;;26.57;19.80;;;3.80;1.00;4.50;102088.00;;;;5076505;28;20501;-80
2022/03/22 05:56:25;;;;;;;24.10;20.07;;;3.90;1.00;4.50;102094.00;;;;5088578;28;20450;-80
2022/03/22 05:58:53;;;;;;;24.53;20.53;;;4.00;1.00;4.60;102103.00;;;;5098338;28;20501;-80
2022/03/22 06:01:24;;;;;;;27.43;21.27;;;4.00;1.00;4.70;102097.00;;;;5092672;28;20438;-80
2022/03/22 06:03:52;;;;;;;29.17;21.77;;;4.20;1.00;4.80;102086.00;;;;5095737;28;20507;-79
2022/03/22 06:06:21;;;;;;;26.10;20.77;;;4.20;1.00;4.90;102104.00;;;;5095867;28;20423;-79
2022/03/22 06:08:50;;;;;;;27.20;21.80;;;4.30;1.00;5.00;102110.00;;;;5093606;28;20471;-78
2022/03/22 06:11:19;;;;;;;28.80;21.97;;;4.40;1.00;5.10;102104.00;;;;5085995;28;20487;-80
2022/03/22 06:13:47;;;;;;;26.60;20.40;;;4.70;1.00;5.20;102089.00;;;;5077397;28;20498;-79
2022/03/22 06:16:16;;;;;;;26.57;21.40;;;4.60;1.00;5.30;102099.00;;;;5082656;28;20455;-80
2022/03/22 06:18:47;;;;;;;24.03;20.63;;;4.70;1.00;5.40;102104.00;;;;5079498;28;20475;-81
2022/03/22 06:21:16;;;;;;;35.27;22.10;;;4.90;1.00;5.50;102100.00;;;;5093055;28;20490;-80
2022/03/22 06:23:47;;;;;;;32.17;20.73;;;5.00;1.00;5.60;102095.00;;;;5089144;28;20492;-82
2022/03/22 06:26:15;;;;;;;32.90;21.80;;;5.10;1.00;5.70;102080.00;;;;5079133;28;20451;-81
2022/03/22 06:28:45;;;;;;;33.50;22.00;;;5.20;1.00;5.80;102096.00;;;;5077839;28;20479;-82
2022/03/22 06:31:13;;;;;;;36.17;22.10;;;5.20;1.00;5.90;102096.00;;;;5092480;28;20459;-83
2022/03/22 06:33:42;;;;;;;35.73;22.50;;;5.40;1.00;6.00;102094.00;;;;5081849;28;20447;-83
2022/03/22 06:36:11;;;;;;;29.13;23.03;;;5.50;1.00;6.00;102093.00;;;;5084895;28;20446;-82
2022/03/22 06:38:40;;;;;;;45.30;24.87;;;5.60;1.00;6.20;102106.00;;;;5084852;28;20609;-82
2022/03/22 06:41:08;;;;;;;86.10;30.67;;;5.70;1.00;6.20;102086.00;;;;5088481;28;20462;-81
2022/03/22 06:43:37;;;;;;;116.33;31.90;;;5.80;1.00;6.40;102093.00;;;;5086774;28;20447;-81
2022/03/22 06:46:05;;;;;;;103.17;32.17;;;5.90;1.00;6.50;102105.00;;;;5083671;28;20530;-82
2022/03/22 06:48:34;;;;;;;79.20;28.03;;;6.00;1.00;6.60;102100.00;;;;5083912;28;20475;-82
2022/03/22 06:51:02;;;;;;;49.77;23.30;;;6.10;1.00;6.80;102104.00;;;;5083565;28;20901;-82
2022/03/22 06:53:35;;;;;;;49.90;22.27;;;6.30;1.00;6.90;102098.00;;;;5084850;28;20459;-81
2022/03/22 06:56:05;;;;;;;42.00;22.33;;;6.40;1.00;7.10;102099.00;;;;5087028;28;20443;-82
2022/03/22 06:58:33;;;;;;;25.80;19.90;;;6.70;1.00;7.20;102118.00;;;;5086511;28;20479;-82
2022/03/22 07:01:02;;;;;;;28.27;18.97;;;6.70;1.00;7.30;102120.00;;;;5076246;28;20963;-82
2022/03/22 07:03:30;;;;;;;21.50;17.83;;;6.80;1.00;7.40;102111.00;;;;5068074;28;20971;-83
2022/03/22 07:05:59;;;;;;;22.80;18.77;;;6.90;1.00;7.50;102095.00;;;;5080424;28;20443;-80
2022/03/22 07:08:27;;;;;;;30.43;22.03;;;7.00;1.00;7.60;102067.00;;;;5092979;28;20835;-83
2022/03/22 07:13:46;;;;;;;26.40;19.90;;;7.20;1.00;7.90;102093.00;;;;5065807;28;20483;-84
2022/03/22 07:16:14;;;;;;;21.40;18.33;;;7.40;1.00;7.90;102107.00;;;;5070425;28;20558;-83
2022/03/22 07:18:43;;;;;;;28.27;21.83;;;7.50;1.00;8.00;102132.00;;;;5077768;28;20471;-83
2022/03/22 07:21:11;;;;;;;26.77;19.33;;;7.50;1.00;8.10;102111.00;;;;5070995;28;20471;-83
2022/03/22 07:23:40;;;;;;;25.60;19.80;;;7.60;1.00;8.20;102112.00;;;;5078699;28;20459;-83
2022/03/22 07:26:10;;;;;;;24.77;18.90;;;7.70;1.00;8.30;102100.00;;;;5068483;28;20574;-83
2022/03/22 07:28:41;;;;;;;23.37;18.80;;;7.90;1.00;8.40;102134.00;;;;5074619;28;20574;-83
2022/03/22 07:31:09;;;;;;;29.63;19.33;;;8.00;1.00;8.50;102113.00;;;;5072857;28;20475;-83
2022/03/22 07:33:38;;;;;;;21.50;19.27;;;8.10;1.00;8.60;102121.00;;;;5068439;28;20477;-83
2022/03/22 07:36:09;;;;;;;25.63;19.27;;;8.20;1.00;8.80;102098.00;;;;5073725;28;20478;-83
2022/03/22 07:38:37;;;;;;;55.07;22.93;;;8.40;1.00;8.80;102099.00;;;;5082781;28;20470;-82
2022/03/22 07:41:07;;;;;;;64.77;22.73;;;8.50;1.00;8.80;102103.00;;;;5067653;28;20682;-84
2022/03/22 07:43:37;;;;;;;25.53;18.00;;;8.50;1.00;8.90;102120.00;;;;5072711;28;20463;-83
2022/03/22 07:46:06;;;;;;;24.40;17.90;;;8.60;1.00;8.90;102110.00;;;;5069578;28;20505;-83
2022/03/22 07:48:34;;;;;;;22.33;16.97;;;8.60;1.00;9.00;102118.00;;;;5066364;28;20491;-82
2022/03/22 07:53:49;;;;;;;27.43;17.60;;;8.80;1.00;9.10;102100.00;;;;5083961;28;20470;-83
2022/03/22 07:56:17;;;;;;;22.17;15.70;;;8.90;1.00;9.20;102111.00;;;;5076863;28;20541;-83
2022/03/22 07:58:47;;;;;;;19.63;17.30;;;8.90;1.00;9.20;102113.00;;;;5073941;28;20467;-83
2022/03/22 08:01:16;;;;;;;19.93;17.03;;;9.00;1.00;9.40;102118.00;;;;5068486;28;20457;-83
2022/03/22 08:03:45;;;;;;;24.07;16.67;;;9.10;1.00;9.50;102103.00;;;;5066122;28;20513;-83
2022/03/22 08:06:14;;;;;;;19.90;16.97;;;9.20;1.00;9.50;102121.00;;;;5059070;28;20463;-83
2022/03/22 08:08:44;;;;;;;17.93;15.87;;;9.20;1.00;9.60;102081.00;;;;5065111;28;20470;-83
2022/03/22 08:11:13;;;;;;;20.20;17.70;;;9.30;1.00;9.60;102060.00;;;;5073557;28;20546;-83
2022/03/22 08:13:42;;;;;;;22.40;18.27;;;9.40;1.00;9.70;102118.00;;;;5070122;28;20458;-83
2022/03/22 08:16:12;;;;;;;19.10;15.07;;;9.50;1.00;9.80;102125.00;;;;5067417;28;20451;-84
2022/03/22 08:18:41;;;;;;;17.47;15.57;;;9.50;1.00;9.90;102137.00;;;;5083657;28;20526;-84
2022/03/22 08:21:10;;;;;;;21.63;14.97;;;9.60;1.00;9.80;102073.00;;;;5067639;28;20508;-86
2022/03/22 08:23:38;;;;;;;17.70;15.47;;;9.80;1.00;10.10;102120.00;;;;5074091;28;20859;-83
2022/03/22 08:26:07;;;;;;;19.37;14.50;;;9.90;1.00;10.20;102116.00;;;;5084239;28;20451;-84
2022/03/22 08:28:35;;;;;;;19.33;15.13;;;10.00;1.00;10.30;102121.00;;;;5074570;28;20509;-84
2022/03/22 08:31:04;;;;;;;21.70;14.20;;;10.10;1.00;10.50;102104.00;;;;5073123;28;20548;-83
2022/03/22 08:33:35;;;;;;;15.63;13.13;;;10.20;1.00;10.60;102122.00;;;;5067991;28;20458;-84
2022/03/22 08:36:04;;;;;;;14.20;12.47;;;10.40;1.00;10.60;102101.00;;;;5069183;28;20546;-85
2022/03/22 08:38:33;;;;;;;16.43;13.37;;;10.50;1.00;10.80;102111.00;;;;5069657;28;20470;-84
2022/03/22 08:41:01;;;;;;;16.53;13.40;;;10.90;1.00;10.90;102108.00;;;;5074316;28;20453;-85
2022/03/22 08:43:30;;;;;;;14.70;12.83;;;10.70;1.00;11.00;102108.00;;;;5060743;28;20524;-85
2022/03/22 08:45:59;;;;;;;17.53;14.33;;;10.90;1.00;11.00;102118.00;;;;5071184;28;20970;-84
2022/03/22 08:48:27;;;;;;;18.93;14.33;;;10.90;1.00;11.00;102106.00;;;;5074991;28;20493;-85
2022/03/22 08:50:58;;;;;;;18.97;14.33;;;10.80;1.00;11.00;102090.00;;;;5075592;28;21039;-84
2022/03/22 08:53:27;;;;;;;15.67;13.10;;;10.80;1.00;11.00;102106.00;;;;5090491;28;20548;-85
2022/03/22 08:55:55;;;;;;;15.43;13.40;;;10.90;1.00;11.20;102113.00;;;;5086239;28;20494;-85
2022/03/22 08:58:24;;;;;;;22.70;13.80;;;11.20;1.00;11.30;102109.00;;;;5090170;28;20493;-83
2022/03/22 09:00:52;;;;;;;19.87;13.10;;;11.10;1.00;11.30;102130.00;;;;5096033;28;20435;-84
2022/03/22 09:03:22;;;;;;;15.90;12.73;;;11.20;1.00;11.40;102095.00;;;;5084671;28;20455;-85
2022/03/22 09:06:09;;;;;;;15.90;12.50;;;11.30;1.00;11.30;102111.00;;;;5076630;28;20451;-84
2022/03/22 09:08:41;;;;;;;14.17;11.33;;;11.40;1.00;11.50;102099.00;;;;5073180;28;20470;-83
2022/03/22 09:11:10;;;;;;;15.60;11.73;;;11.40;1.00;11.50;102113.00;;;;5086493;28;20481;-86
2022/03/22 09:13:41;;;;;;;14.97;12.23;;;11.40;1.00;11.60;102079.00;;;;5094534;28;20450;-81
2022/03/22 09:16:14;;;;;;;15.63;12.13;;;11.50;1.00;11.70;102107.00;;;;5094294;28;20457;-87
2022/03/22 09:18:46;;;;;;;16.43;13.07;;;11.50;1.00;11.70;102112.00;;;;5082679;28;20470;-81
2022/03/22 09:21:14;;;;;;;13.80;12.40;;;11.60;1.00;11.80;102043.00;;;;5078568;28;20455;-83
2022/03/22 09:23:44;;;;;;;14.57;12.40;;;11.70;1.00;11.90;102108.00;;;;5085052;28;20459;-80
2022/03/22 09:26:13;;;;;;;16.97;12.43;;;11.80;1.00;11.80;102110.00;;;;5086569;28;20474;-80
2022/03/22 09:28:41;;;;;;;13.40;12.00;;;11.70;1.00;11.90;102096.00;;;;5079015;28;20511;-82
2022/03/22 09:31:10;;;;;;;11.47;10.30;;;11.80;1.00;12.00;102096.00;;;;5100909;28;20482;-85
2022/03/22 09:33:39;;;;;;;11.30;10.10;;;12.10;1.00;12.10;102104.00;;;;5091863;28;20457;-81
2022/03/22 09:36:07;;;;;;;12.50;10.70;;;12.00;1.00;12.00;102098.00;;;;5091790;28;20443;-81
2022/03/22 09:38:37;;;;;;;15.10;12.20;;;12.00;1.00;12.20;102092.00;;;;5086023;28;20475;-81
2022/03/22 09:41:09;;;;;;;12.13;10.90;;;12.10;1.00;12.20;102109.00;;;;5079393;28;20607;-80
2022/03/22 09:43:38;;;;;;;12.70;11.30;;;12.10;1.00;12.30;102091.00;;;;5075855;28;20473;-79
2022/03/22 09:46:09;;;;;;;15.90;12.73;;;12.20;1.00;12.40;102070.00;;;;5074737;28;20529;-77
2022/03/22 09:48:39;;;;;;;13.60;11.87;;;12.30;1.00;12.40;102098.00;;;;5078335;28;20478;-81
2022/03/22 09:53:54;;;;;;;41.97;14.63;;;12.40;1.00;12.60;102083.00;;;;5079869;28;20455;-82
2022/03/22 09:56:30;;;;;;;17.83;12.57;;;12.60;1.00;12.70;102095.00;;;;5079651;28;20451;-81
2022/03/22 09:59:00;;;;;;;15.93;12.70;;;12.60;1.00;12.80;102098.00;;;;5083125;28;20478;-82
2022/03/22 10:01:30;;;;;;;13.00;11.70;;;12.80;1.00;12.80;102095.00;;;;5077746;28;20592;-82
2022/03/22 10:04:02;;;;;;;14.37;12.83;;;13.20;1.00;12.80;102074.00;;;;5090423;28;20960;-81
2022/03/22 10:06:32;;;;;;;15.93;12.40;;;12.80;1.00;12.80;102081.00;;;;5064954;28;21372;-82
2022/03/22 10:09:01;;;;;;;12.27;10.97;;;12.80;1.00;12.90;102090.00;;;;5074096;28;20479;-84
2022/03/22 10:11:42;;;;;;;13.20;11.80;;;12.80;1.00;13.00;102084.00;;;;5072171;28;20544;-80
2022/03/22 10:14:13;;;;;;;14.07;12.30;;;13.00;1.00;13.20;102100.00;;;;5068105;28;20459;-82
2022/03/22 10:16:50;;;;;;;14.60;12.10;;;13.30;1.00;13.10;102061.00;;;;5074116;28;20450;-81
2022/03/22 10:19:24;;;;;;;13.50;11.60;;;13.10;1.00;13.20;102080.00;;;;5073237;28;21269;-82
2022/03/22 10:21:54;;;;;;;12.60;11.40;;;13.20;1.00;13.30;102046.00;;;;5080648;28;20456;-84
2022/03/22 10:24:22;;;;;;;14.70;11.10;;;13.30;1.00;13.40;102082.00;;;;5091251;28;20514;-84
2022/03/22 10:26:52;;;;;;;14.80;11.17;;;13.40;1.00;13.40;102082.00;;;;5102434;28;20715;-82
2022/03/22 10:29:21;;;;;;;14.50;11.40;;;13.30;1.00;13.50;102086.00;;;;5079575;28;20516;-83
2022/03/22 10:31:50;;;;;;;12.07;10.87;;;13.50;1.00;13.70;102045.00;;;;5078137;28;20825;-81
2022/03/22 10:34:29;;;;;;;12.73;11.10;;;13.70;1.00;13.80;102045.00;;;;5075444;28;20454;-83
2022/03/22 10:36:57;;;;;;;14.20;12.07;;;13.80;1.00;13.90;102061.00;;;;5072261;28;20462;-85
2022/03/22 10:39:26;;;;;;;15.50;11.47;;;14.00;1.00;14.00;102069.00;;;;5094842;28;20470;-82
2022/03/22 10:42:06;;;;;;;13.20;11.80;;;14.10;1.00;14.20;102071.00;;;;5083279;28;20478;-83
2022/03/22 10:44:41;;;;;;;18.20;16.30;;;14.20;1.00;14.20;102061.00;;;;5074329;28;20505;-83
2022/03/22 10:47:10;;;;;;;16.20;13.53;;;14.30;1.00;14.40;102058.00;;;;5061583;28;20979;-81
2022/03/22 10:49:38;;;;;;;18.73;16.83;;;14.40;1.00;14.40;102068.00;;;;5072851;28;20540;-80
2022/03/22 10:52:20;;;;;;;13.90;12.40;;;14.50;1.00;14.50;102068.00;;;;5072693;28;20893;-81
2022/03/22 10:54:48;;;;;;;14.37;12.90;;;14.60;1.00;14.40;102062.00;;;;5069846;28;20530;-81
2022/03/22 10:57:28;;;;;;;12.30;11.10;;;14.60;1.00;14.50;102064.00;;;;5072914;28;21106;-79
2022/03/22 10:59:59;;;;;;;13.43;12.10;;;14.50;1.00;14.60;102049.00;;;;5071898;28;20475;-80
2022/03/22 11:02:29;;;;;;;13.50;12.30;;;14.60;1.00;14.70;102021.00;;;;5079200;28;20435;-83
2022/03/22 11:05:00;;;;;;;16.43;11.93;;;14.80;1.00;14.80;102060.00;;;;5090773;28;20455;-82
2022/03/22 11:07:29;;;;;;;14.20;12.60;;;15.00;1.00;14.90;102060.00;;;;5106923;28;20458;-82
2022/03/22 11:09:59;;;;;;;13.40;12.00;;;15.00;1.00;14.80;102047.00;;;;5080062;28;20477;-83
2022/03/22 11:12:37;;;;;;;13.87;12.47;;;14.90;1.00;14.80;102059.00;;;;5072653;28;20463;-87
2022/03/22 11:15:08;;;;;;;14.13;12.87;;;15.10;1.00;14.90;102050.00;;;;5091483;28;20512;-81
2022/03/22 11:17:37;;;;;;;14.30;12.83;;;14.90;1.00;15.00;102041.00;;;;5082070;28;20452;-81
2022/03/22 11:20:10;;;;;;;16.03;12.23;;;15.00;1.00;15.10;102024.00;;;;5081699;28;20483;-81
2022/03/22 11:22:49;;;;;;;12.50;11.20;;;15.10;1.00;15.20;102009.00;;;;5066618;28;20454;-82
2022/03/22 11:25:20;;;;;;;13.67;12.30;;;15.30;1.00;15.20;102038.00;;;;5084428;28;20435;-81
2022/03/22 11:28:00;;;;;;;13.10;11.70;;;15.20;1.00;15.20;102037.00;;;;5103169;28;20463;-81
2022/03/22 11:30:30;;;;;;;12.63;11.33;;;15.30;1.00;15.30;102044.00;;;;5080160;28;20485;-83